sensor_id;sensor_type;location;lat;lon;timestamp;P1;durP1;ratioP1;P2;durP2;ratioP2
54263;SDS011;40178;53.042;6.406;2023-07-09T00:00:12;8.82;;;6.85;;
54263;SDS011;40178;53.042;6.406;2023-07-09T00:02:44;11.32;;;7.97;;
54263;SDS011;40178;53.042;6.406;2023-07-09T00:05:13;9.32;;;6.35;;
54263;SDS011;40178;53.042;6.406;2023-07-09T00:07:42;10.93;;;7.00;;
54263;SDS011;40178;53.042;6.406;2023-07-09T00:10:20;8.63;;;6.43;;
54263;SDS011;40178;53.042;6.406;2023-07-09T00:12:46;9.80;;;6.90;;
54263;SDS011;40178;53.042;6.406;2023-07-09T00:15:13;11.35;;;7.25;;
54263;SDS011;40178;53.042;6.406;2023-07-09T00:17:41;9.77;;;6.63;;
54263;SDS011;40178;53.042;6.406;2023-07-09T00:20:12;9.93;;;7.15;;
54263;SDS011;40178;53.042;6.406;2023-07-09T00:22:41;11.23;;;6.65;;
54263;SDS011;40178;53.042;6.406;2023-07-09T00:25:16;9.00;;;6.63;;
54263;SDS011;40178;53.042;6.406;2023-07-09T00:27:44;11.77;;;6.90;;
54263;SDS011;40178;53.042;6.406;2023-07-09T00:30:17;9.73;;;6.90;;
54263;SDS011;40178;53.042;6.406;2023-07-09T00:32:47;9.07;;;6.20;;
54263;SDS011;40178;53.042;6.406;2023-07-09T00:35:18;10.65;;;6.57;;
54263;SDS011;40178;53.042;6.406;2023-07-09T00:37:44;11.45;;;6.43;;
54263;SDS011;40178;53.042;6.406;2023-07-09T00:40:17;12.68;;;7.35;;
54263;SDS011;40178;53.042;6.406;2023-07-09T00:42:52;9.32;;;6.57;;
54263;SDS011;40178;53.042;6.406;2023-07-09T00:45:23;10.63;;;7.20;;
54263;SDS011;40178;53.042;6.406;2023-07-09T00:47:51;11.30;;;7.63;;
54263;SDS011;40178;53.042;6.406;2023-07-09T00:50:31;9.73;;;6.57;;
54263;SDS011;40178;53.042;6.406;2023-07-09T00:53:10;9.10;;;6.70;;
54263;SDS011;40178;53.042;6.406;2023-07-09T00:55:43;10.98;;;7.25;;
54263;SDS011;40178;53.042;6.406;2023-07-09T00:58:13;9.68;;;6.90;;
54263;SDS011;40178;53.042;6.406;2023-07-09T01:00:44;10.60;;;7.22;;
54263;SDS011;40178;53.042;6.406;2023-07-09T01:03:22;9.05;;;6.82;;
54263;SDS011;40178;53.042;6.406;2023-07-09T01:06:03;10.50;;;7.28;;
54263;SDS011;40178;53.042;6.406;2023-07-09T01:08:31;10.25;;;7.07;;
54263;SDS011;40178;53.042;6.406;2023-07-09T01:10:58;11.45;;;7.00;;
54263;SDS011;40178;53.042;6.406;2023-07-09T01:13:27;10.57;;;7.00;;
54263;SDS011;40178;53.042;6.406;2023-07-09T01:15:57;9.48;;;6.40;;
54263;SDS011;40178;53.042;6.406;2023-07-09T01:18:23;11.45;;;7.30;;
54263;SDS011;40178;53.042;6.406;2023-07-09T01:20:49;9.88;;;7.47;;
54263;SDS011;40178;53.042;6.406;2023-07-09T01:23:17;10.80;;;6.60;;
54263;SDS011;40178;53.042;6.406;2023-07-09T01:25:45;10.20;;;6.70;;
54263;SDS011;40178;53.042;6.406;2023-07-09T01:28:17;9.50;;;7.05;;
54263;SDS011;40178;53.042;6.406;2023-07-09T01:30:43;9.70;;;6.65;;
54263;SDS011;40178;53.042;6.406;2023-07-09T01:33:10;11.68;;;6.57;;
54263;SDS011;40178;53.042;6.406;2023-07-09T01:35:36;10.48;;;6.88;;
54263;SDS011;40178;53.042;6.406;2023-07-09T01:38:06;9.45;;;6.40;;
54263;SDS011;40178;53.042;6.406;2023-07-09T01:40:31;10.68;;;6.68;;
54263;SDS011;40178;53.042;6.406;2023-07-09T01:42:58;9.88;;;7.15;;
54263;SDS011;40178;53.042;6.406;2023-07-09T01:45:25;9.38;;;5.80;;
54263;SDS011;40178;53.042;6.406;2023-07-09T01:47:51;11.20;;;6.70;;
54263;SDS011;40178;53.042;6.406;2023-07-09T01:50:18;9.38;;;6.20;;
54263;SDS011;40178;53.042;6.406;2023-07-09T01:52:44;8.55;;;5.60;;
54263;SDS011;40178;53.042;6.406;2023-07-09T01:55:11;10.27;;;6.47;;
54263;SDS011;40178;53.042;6.406;2023-07-09T01:57:42;9.60;;;5.93;;
54263;SDS011;40178;53.042;6.406;2023-07-09T02:00:15;10.52;;;5.80;;
54263;SDS011;40178;53.042;6.406;2023-07-09T02:02:41;10.23;;;6.15;;
54263;SDS011;40178;53.042;6.406;2023-07-09T02:05:08;9.32;;;6.45;;
54263;SDS011;40178;53.042;6.406;2023-07-09T02:07:34;12.13;;;6.45;;
54263;SDS011;40178;53.042;6.406;2023-07-09T02:10:00;10.13;;;6.75;;
54263;SDS011;40178;53.042;6.406;2023-07-09T02:12:25;8.52;;;6.28;;
54263;SDS011;40178;53.042;6.406;2023-07-09T02:14:51;10.30;;;7.20;;
54263;SDS011;40178;53.042;6.406;2023-07-09T02:17:17;12.55;;;6.60;;
54263;SDS011;40178;53.042;6.406;2023-07-09T02:19:42;10.38;;;6.55;;
54263;SDS011;40178;53.042;6.406;2023-07-09T02:22:08;9.48;;;7.20;;
54263;SDS011;40178;53.042;6.406;2023-07-09T02:24:35;10.95;;;7.32;;
54263;SDS011;40178;53.042;6.406;2023-07-09T02:27:01;9.85;;;6.75;;
54263;SDS011;40178;53.042;6.406;2023-07-09T02:29:29;10.35;;;6.85;;
54263;SDS011;40178;53.042;6.406;2023-07-09T02:31:57;9.38;;;7.40;;
54263;SDS011;40178;53.042;6.406;2023-07-09T02:34:27;15.15;;;7.43;;
54263;SDS011;40178;53.042;6.406;2023-07-09T02:36:54;11.18;;;7.63;;
54263;SDS011;40178;53.042;6.406;2023-07-09T02:39:21;10.13;;;7.85;;
54263;SDS011;40178;53.042;6.406;2023-07-09T02:41:47;11.60;;;8.05;;
54263;SDS011;40178;53.042;6.406;2023-07-09T02:44:13;8.48;;;6.63;;
54263;SDS011;40178;53.042;6.406;2023-07-09T02:46:39;11.35;;;7.75;;
54263;SDS011;40178;53.042;6.406;2023-07-09T02:49:05;9.77;;;7.75;;
54263;SDS011;40178;53.042;6.406;2023-07-09T02:51:32;10.93;;;7.70;;
54263;SDS011;40178;53.042;6.406;2023-07-09T02:53:59;9.15;;;6.40;;
54263;SDS011;40178;53.042;6.406;2023-07-09T02:56:26;12.50;;;7.53;;
54263;SDS011;40178;53.042;6.406;2023-07-09T02:58:52;10.70;;;7.22;;
54263;SDS011;40178;53.042;6.406;2023-07-09T03:01:18;10.65;;;7.90;;
54263;SDS011;40178;53.042;6.406;2023-07-09T03:03:50;9.90;;;7.32;;
54263;SDS011;40178;53.042;6.406;2023-07-09T03:06:17;11.13;;;6.93;;
54263;SDS011;40178;53.042;6.406;2023-07-09T03:08:44;10.65;;;7.40;;
54263;SDS011;40178;53.042;6.406;2023-07-09T03:11:10;11.05;;;7.38;;
54263;SDS011;40178;53.042;6.406;2023-07-09T03:13:37;15.02;;;7.55;;
54263;SDS011;40178;53.042;6.406;2023-07-09T03:16:02;10.95;;;6.80;;
54263;SDS011;40178;53.042;6.406;2023-07-09T03:18:28;8.95;;;6.10;;
54263;SDS011;40178;53.042;6.406;2023-07-09T03:20:54;11.00;;;7.20;;
54263;SDS011;40178;53.042;6.406;2023-07-09T03:23:20;11.63;;;7.10;;
54263;SDS011;40178;53.042;6.406;2023-07-09T03:25:46;11.18;;;7.15;;
54263;SDS011;40178;53.042;6.406;2023-07-09T03:28:12;9.32;;;6.38;;
54263;SDS011;40178;53.042;6.406;2023-07-09T03:30:40;11.23;;;7.15;;
54263;SDS011;40178;53.042;6.406;2023-07-09T03:33:06;9.13;;;6.32;;
54263;SDS011;40178;53.042;6.406;2023-07-09T03:35:32;9.23;;;6.68;;
54263;SDS011;40178;53.042;6.406;2023-07-09T03:37:59;9.63;;;6.70;;
54263;SDS011;40178;53.042;6.406;2023-07-09T03:40:25;9.10;;;6.32;;
54263;SDS011;40178;53.042;6.406;2023-07-09T03:42:51;11.52;;;8.10;;
54263;SDS011;40178;53.042;6.406;2023-07-09T03:45:16;11.07;;;7.32;;
54263;SDS011;40178;53.042;6.406;2023-07-09T03:47:42;9.07;;;6.72;;
54263;SDS011;40178;53.042;6.406;2023-07-09T03:50:08;11.68;;;6.32;;
54263;SDS011;40178;53.042;6.406;2023-07-09T03:52:34;9.55;;;6.57;;
54263;SDS011;40178;53.042;6.406;2023-07-09T03:55:00;10.05;;;6.82;;
54263;SDS011;40178;53.042;6.406;2023-07-09T03:57:29;10.13;;;6.80;;
54263;SDS011;40178;53.042;6.406;2023-07-09T03:59:55;10.43;;;6.43;;
54263;SDS011;40178;53.042;6.406;2023-07-09T04:02:21;8.70;;;6.15;;
54263;SDS011;40178;53.042;6.406;2023-07-09T04:04:46;9.52;;;6.28;;
54263;SDS011;40178;53.042;6.406;2023-07-09T04:07:12;10.68;;;6.20;;
54263;SDS011;40178;53.042;6.406;2023-07-09T04:09:38;9.95;;;6.75;;
54263;SDS011;40178;53.042;6.406;2023-07-09T04:12:04;10.20;;;7.10;;
54263;SDS011;40178;53.042;6.406;2023-07-09T04:14:30;10.68;;;6.57;;
54263;SDS011;40178;53.042;6.406;2023-07-09T04:16:55;9.98;;;6.57;;
54263;SDS011;40178;53.042;6.406;2023-07-09T04:19:22;9.55;;;6.55;;
54263;SDS011;40178;53.042;6.406;2023-07-09T04:21:48;9.90;;;6.13;;
54263;SDS011;40178;53.042;6.406;2023-07-09T04:24:14;11.93;;;6.22;;
54263;SDS011;40178;53.042;6.406;2023-07-09T04:26:41;10.30;;;6.15;;
54263;SDS011;40178;53.042;6.406;2023-07-09T04:29:07;10.55;;;6.55;;
54263;SDS011;40178;53.042;6.406;2023-07-09T04:31:33;9.93;;;6.85;;
54263;SDS011;40178;53.042;6.406;2023-07-09T04:33:58;10.18;;;6.50;;
54263;SDS011;40178;53.042;6.406;2023-07-09T04:36:24;8.65;;;6.65;;
54263;SDS011;40178;53.042;6.406;2023-07-09T04:38:51;10.15;;;6.60;;
54263;SDS011;40178;53.042;6.406;2023-07-09T04:41:17;9.52;;;6.50;;
54263;SDS011;40178;53.042;6.406;2023-07-09T04:43:42;10.43;;;6.22;;
54263;SDS011;40178;53.042;6.406;2023-07-09T04:46:08;9.88;;;6.10;;
54263;SDS011;40178;53.042;6.406;2023-07-09T04:48:34;9.30;;;6.25;;
54263;SDS011;40178;53.042;6.406;2023-07-09T04:50:59;14.90;;;7.07;;
54263;SDS011;40178;53.042;6.406;2023-07-09T04:53:25;9.48;;;6.15;;
54263;SDS011;40178;53.042;6.406;2023-07-09T04:55:51;9.52;;;6.22;;
54263;SDS011;40178;53.042;6.406;2023-07-09T04:58:17;11.05;;;6.20;;
54263;SDS011;40178;53.042;6.406;2023-07-09T05:00:43;11.20;;;6.60;;
54263;SDS011;40178;53.042;6.406;2023-07-09T05:03:10;10.20;;;6.43;;
54263;SDS011;40178;53.042;6.406;2023-07-09T05:05:41;9.13;;;6.18;;
54263;SDS011;40178;53.042;6.406;2023-07-09T05:08:11;12.23;;;6.85;;
54263;SDS011;40178;53.042;6.406;2023-07-09T05:10:41;10.75;;;6.18;;
54263;SDS011;40178;53.042;6.406;2023-07-09T05:13:08;10.20;;;6.43;;
54263;SDS011;40178;53.042;6.406;2023-07-09T05:15:34;9.40;;;5.85;;
54263;SDS011;40178;53.042;6.406;2023-07-09T05:17:59;12.52;;;6.88;;
54263;SDS011;40178;53.042;6.406;2023-07-09T05:20:25;11.45;;;6.43;;
54263;SDS011;40178;53.042;6.406;2023-07-09T05:22:51;9.32;;;6.35;;
54263;SDS011;40178;53.042;6.406;2023-07-09T05:25:17;9.60;;;6.65;;
54263;SDS011;40178;53.042;6.406;2023-07-09T05:27:42;10.77;;;6.55;;
54263;SDS011;40178;53.042;6.406;2023-07-09T05:30:08;10.23;;;6.60;;
54263;SDS011;40178;53.042;6.406;2023-07-09T05:32:36;12.50;;;7.15;;
54263;SDS011;40178;53.042;6.406;2023-07-09T05:35:02;10.90;;;6.65;;
54263;SDS011;40178;53.042;6.406;2023-07-09T05:37:28;9.82;;;6.40;;
54263;SDS011;40178;53.042;6.406;2023-07-09T05:39:54;11.10;;;6.82;;
54263;SDS011;40178;53.042;6.406;2023-07-09T05:42:20;10.82;;;7.35;;
54263;SDS011;40178;53.042;6.406;2023-07-09T05:44:46;10.23;;;6.72;;
54263;SDS011;40178;53.042;6.406;2023-07-09T05:47:11;9.50;;;6.70;;
54263;SDS011;40178;53.042;6.406;2023-07-09T05:49:38;9.77;;;6.70;;
54263;SDS011;40178;53.042;6.406;2023-07-09T05:52:04;9.13;;;6.72;;
54263;SDS011;40178;53.042;6.406;2023-07-09T05:54:30;10.38;;;7.30;;
54263;SDS011;40178;53.042;6.406;2023-07-09T05:56:56;10.48;;;6.82;;
54263;SDS011;40178;53.042;6.406;2023-07-09T05:59:22;11.73;;;6.93;;
54263;SDS011;40178;53.042;6.406;2023-07-09T06:01:47;11.15;;;6.68;;
54263;SDS011;40178;53.042;6.406;2023-07-09T06:04:13;10.23;;;6.85;;
54263;SDS011;40178;53.042;6.406;2023-07-09T06:06:39;9.90;;;7.10;;
54263;SDS011;40178;53.042;6.406;2023-07-09T06:09:06;10.68;;;7.05;;
54263;SDS011;40178;53.042;6.406;2023-07-09T06:11:33;13.35;;;7.97;;
54263;SDS011;40178;53.042;6.406;2023-07-09T06:13:59;12.18;;;7.50;;
54263;SDS011;40178;53.042;6.406;2023-07-09T06:16:25;10.73;;;7.20;;
54263;SDS011;40178;53.042;6.406;2023-07-09T06:18:51;10.55;;;7.43;;
54263;SDS011;40178;53.042;6.406;2023-07-09T06:21:16;9.38;;;6.93;;
54263;SDS011;40178;53.042;6.406;2023-07-09T06:23:42;10.82;;;7.22;;
54263;SDS011;40178;53.042;6.406;2023-07-09T06:26:08;11.90;;;7.80;;
54263;SDS011;40178;53.042;6.406;2023-07-09T06:28:33;10.35;;;7.10;;
54263;SDS011;40178;53.042;6.406;2023-07-09T06:30:59;11.27;;;7.72;;
54263;SDS011;40178;53.042;6.406;2023-07-09T06:33:25;13.07;;;7.57;;
54263;SDS011;40178;53.042;6.406;2023-07-09T06:35:52;15.07;;;7.68;;
54263;SDS011;40178;53.042;6.406;2023-07-09T06:38:20;12.27;;;7.22;;
54263;SDS011;40178;53.042;6.406;2023-07-09T06:40:46;10.77;;;7.10;;
54263;SDS011;40178;53.042;6.406;2023-07-09T06:43:11;9.65;;;7.00;;
54263;SDS011;40178;53.042;6.406;2023-07-09T06:45:37;12.68;;;7.30;;
54263;SDS011;40178;53.042;6.406;2023-07-09T06:48:03;10.75;;;6.82;;
54263;SDS011;40178;53.042;6.406;2023-07-09T06:50:32;10.15;;;6.75;;
54263;SDS011;40178;53.042;6.406;2023-07-09T06:52:58;11.80;;;7.60;;
54263;SDS011;40178;53.042;6.406;2023-07-09T06:55:24;11.32;;;7.10;;
54263;SDS011;40178;53.042;6.406;2023-07-09T06:57:50;12.13;;;8.20;;
54263;SDS011;40178;53.042;6.406;2023-07-09T07:00:16;11.10;;;7.20;;
54263;SDS011;40178;53.042;6.406;2023-07-09T07:02:41;10.32;;;6.60;;
54263;SDS011;40178;53.042;6.406;2023-07-09T07:05:07;11.52;;;7.30;;
54263;SDS011;40178;53.042;6.406;2023-07-09T07:07:33;11.02;;;7.68;;
54263;SDS011;40178;53.042;6.406;2023-07-09T07:09:58;9.68;;;6.68;;
54263;SDS011;40178;53.042;6.406;2023-07-09T07:12:24;10.82;;;7.40;;
54263;SDS011;40178;53.042;6.406;2023-07-09T07:14:52;17.27;;;7.47;;
54263;SDS011;40178;53.042;6.406;2023-07-09T07:17:18;10.63;;;6.82;;
54263;SDS011;40178;53.042;6.406;2023-07-09T07:19:44;11.90;;;7.88;;
54263;SDS011;40178;53.042;6.406;2023-07-09T07:22:10;8.88;;;6.75;;
54263;SDS011;40178;53.042;6.406;2023-07-09T07:24:35;9.75;;;6.30;;
54263;SDS011;40178;53.042;6.406;2023-07-09T07:27:01;11.95;;;6.80;;
54263;SDS011;40178;53.042;6.406;2023-07-09T07:29:27;10.20;;;6.50;;
54263;SDS011;40178;53.042;6.406;2023-07-09T07:31:53;11.40;;;6.72;;
54263;SDS011;40178;53.042;6.406;2023-07-09T07:34:19;9.95;;;6.35;;
54263;SDS011;40178;53.042;6.406;2023-07-09T07:36:45;11.20;;;6.90;;
54263;SDS011;40178;53.042;6.406;2023-07-09T07:39:12;9.70;;;6.22;;
54263;SDS011;40178;53.042;6.406;2023-07-09T07:41:37;11.38;;;6.50;;
54263;SDS011;40178;53.042;6.406;2023-07-09T07:44:04;9.30;;;6.80;;
54263;SDS011;40178;53.042;6.406;2023-07-09T07:46:29;10.70;;;6.28;;
54263;SDS011;40178;53.042;6.406;2023-07-09T07:48:57;10.45;;;6.30;;
54263;SDS011;40178;53.042;6.406;2023-07-09T07:51:23;10.07;;;6.35;;
54263;SDS011;40178;53.042;6.406;2023-07-09T07:53:48;9.65;;;6.18;;
54263;SDS011;40178;53.042;6.406;2023-07-09T07:56:14;8.18;;;5.93;;
54263;SDS011;40178;53.042;6.406;2023-07-09T07:58:40;9.73;;;6.38;;
54263;SDS011;40178;53.042;6.406;2023-07-09T08:01:05;10.77;;;6.60;;
54263;SDS011;40178;53.042;6.406;2023-07-09T08:03:31;9.75;;;5.88;;
54263;SDS011;40178;53.042;6.406;2023-07-09T08:05:57;9.90;;;6.38;;
54263;SDS011;40178;53.042;6.406;2023-07-09T08:08:22;9.43;;;6.22;;
54263;SDS011;40178;53.042;6.406;2023-07-09T08:10:51;9.95;;;6.10;;
54263;SDS011;40178;53.042;6.406;2023-07-09T08:13:24;11.18;;;6.68;;
54263;SDS011;40178;53.042;6.406;2023-07-09T08:15:49;9.32;;;6.85;;
54263;SDS011;40178;53.042;6.406;2023-07-09T08:18:15;8.30;;;6.07;;
54263;SDS011;40178;53.042;6.406;2023-07-09T08:20:44;10.15;;;6.75;;
54263;SDS011;40178;53.042;6.406;2023-07-09T08:23:10;12.18;;;6.53;;
54263;SDS011;40178;53.042;6.406;2023-07-09T08:25:35;10.75;;;6.63;;
54263;SDS011;40178;53.042;6.406;2023-07-09T08:28:01;9.77;;;6.40;;
54263;SDS011;40178;53.042;6.406;2023-07-09T08:30:27;9.32;;;6.85;;
54263;SDS011;40178;53.042;6.406;2023-07-09T08:32:52;15.35;;;7.28;;
54263;SDS011;40178;53.042;6.406;2023-07-09T08:35:18;12.40;;;7.55;;
54263;SDS011;40178;53.042;6.406;2023-07-09T08:37:43;12.00;;;7.78;;
54263;SDS011;40178;53.042;6.406;2023-07-09T08:40:11;11.20;;;7.55;;
54263;SDS011;40178;53.042;6.406;2023-07-09T08:42:41;11.15;;;7.82;;
54263;SDS011;40178;53.042;6.406;2023-07-09T08:45:24;12.40;;;7.65;;
54263;SDS011;40178;53.042;6.406;2023-07-09T08:48:04;11.80;;;7.70;;
54263;SDS011;40178;53.042;6.406;2023-07-09T08:50:38;13.82;;;8.45;;
54263;SDS011;40178;53.042;6.406;2023-07-09T08:53:18;14.18;;;8.68;;
54263;SDS011;40178;53.042;6.406;2023-07-09T08:55:47;11.63;;;8.43;;
54263;SDS011;40178;53.042;6.406;2023-07-09T08:58:25;12.10;;;7.72;;
54263;SDS011;40178;53.042;6.406;2023-07-09T09:00:59;11.30;;;8.93;;
54263;SDS011;40178;53.042;6.406;2023-07-09T09:06:25;12.27;;;8.90;;
54263;SDS011;40178;53.042;6.406;2023-07-09T09:11:43;12.07;;;8.18;;
54263;SDS011;40178;53.042;6.406;2023-07-09T09:14:18;16.92;;;9.60;;
54263;SDS011;40178;53.042;6.406;2023-07-09T09:16:44;12.60;;;9.57;;
54263;SDS011;40178;53.042;6.406;2023-07-09T09:19:30;11.40;;;8.85;;
54263;SDS011;40178;53.042;6.406;2023-07-09T09:22:13;12.93;;;9.00;;
54263;SDS011;40178;53.042;6.406;2023-07-09T09:27:13;10.65;;;8.00;;
54263;SDS011;40178;53.042;6.406;2023-07-09T09:29:38;13.02;;;9.50;;
54263;SDS011;40178;53.042;6.406;2023-07-09T09:32:15;14.05;;;9.40;;
54263;SDS011;40178;53.042;6.406;2023-07-09T09:34:47;12.45;;;9.13;;
54263;SDS011;40178;53.042;6.406;2023-07-09T09:37:15;14.88;;;10.27;;
54263;SDS011;40178;53.042;6.406;2023-07-09T09:39:52;13.10;;;9.15;;
54263;SDS011;40178;53.042;6.406;2023-07-09T09:42:18;12.32;;;8.57;;
54263;SDS011;40178;53.042;6.406;2023-07-09T09:44:44;14.65;;;10.80;;
54263;SDS011;40178;53.042;6.406;2023-07-09T09:47:11;14.02;;;9.60;;
54263;SDS011;40178;53.042;6.406;2023-07-09T09:49:43;12.95;;;9.63;;
54263;SDS011;40178;53.042;6.406;2023-07-09T09:52:13;16.35;;;12.10;;
54263;SDS011;40178;53.042;6.406;2023-07-09T09:54:41;14.48;;;9.80;;
54263;SDS011;40178;53.042;6.406;2023-07-09T09:57:15;13.52;;;9.50;;
54263;SDS011;40178;53.042;6.406;2023-07-09T09:59:43;14.32;;;9.95;;
54263;SDS011;40178;53.042;6.406;2023-07-09T10:02:15;13.13;;;9.90;;
54263;SDS011;40178;53.042;6.406;2023-07-09T10:04:43;12.90;;;10.00;;
54263;SDS011;40178;53.042;6.406;2023-07-09T10:07:21;13.32;;;9.88;;
54263;SDS011;40178;53.042;6.406;2023-07-09T10:09:53;12.73;;;8.80;;
54263;SDS011;40178;53.042;6.406;2023-07-09T10:35:00;13.68;;;9.18;;
54263;SDS011;40178;53.042;6.406;2023-07-09T10:37:41;14.23;;;9.98;;
54263;SDS011;40178;53.042;6.406;2023-07-09T10:40:28;12.43;;;9.40;;
54263;SDS011;40178;53.042;6.406;2023-07-09T10:43:03;10.85;;;8.73;;
54263;SDS011;40178;53.042;6.406;2023-07-09T10:45:32;12.63;;;8.95;;
54263;SDS011;40178;53.042;6.406;2023-07-09T10:48:12;11.85;;;8.45;;
54263;SDS011;40178;53.042;6.406;2023-07-09T10:50:47;11.95;;;8.63;;
54263;SDS011;40178;53.042;6.406;2023-07-09T10:53:21;11.70;;;7.90;;
54263;SDS011;40178;53.042;6.406;2023-07-09T10:56:10;12.48;;;8.30;;
54263;SDS011;40178;53.042;6.406;2023-07-09T11:01:32;12.27;;;8.27;;
54263;SDS011;40178;53.042;6.406;2023-07-09T11:04:04;12.55;;;7.38;;
54263;SDS011;40178;53.042;6.406;2023-07-09T11:06:44;11.52;;;8.38;;
54263;SDS011;40178;53.042;6.406;2023-07-09T11:09:22;10.05;;;7.68;;
54263;SDS011;40178;53.042;6.406;2023-07-09T11:11:54;13.23;;;8.30;;
54263;SDS011;40178;53.042;6.406;2023-07-09T11:14:31;13.55;;;8.02;;
54263;SDS011;40178;53.042;6.406;2023-07-09T11:17:03;11.05;;;8.52;;
54263;SDS011;40178;53.042;6.406;2023-07-09T11:19:31;11.75;;;7.65;;
54263;SDS011;40178;53.042;6.406;2023-07-09T11:21:58;10.65;;;8.77;;
54263;SDS011;40178;53.042;6.406;2023-07-09T11:24:52;11.88;;;8.80;;
54263;SDS011;40178;53.042;6.406;2023-07-09T11:27:32;14.43;;;8.10;;
54263;SDS011;40178;53.042;6.406;2023-07-09T11:30:16;10.15;;;7.90;;
54263;SDS011;40178;53.042;6.406;2023-07-09T11:32:46;11.55;;;8.23;;
54263;SDS011;40178;53.042;6.406;2023-07-09T11:35:22;11.85;;;8.68;;
54263;SDS011;40178;53.042;6.406;2023-07-09T11:37:49;10.80;;;7.72;;
54263;SDS011;40178;53.042;6.406;2023-07-09T11:40:17;11.23;;;7.47;;
54263;SDS011;40178;53.042;6.406;2023-07-09T11:42:51;10.60;;;7.57;;
54263;SDS011;40178;53.042;6.406;2023-07-09T11:45:26;9.55;;;7.50;;
54263;SDS011;40178;53.042;6.406;2023-07-09T11:48:09;12.57;;;8.77;;
54263;SDS011;40178;53.042;6.406;2023-07-09T11:50:50;12.68;;;8.85;;
54263;SDS011;40178;53.042;6.406;2023-07-09T11:53:29;10.50;;;8.13;;
54263;SDS011;40178;53.042;6.406;2023-07-09T11:56:21;10.75;;;8.20;;
54263;SDS011;40178;53.042;6.406;2023-07-09T11:58:52;12.13;;;7.70;;
54263;SDS011;40178;53.042;6.406;2023-07-09T12:01:23;11.48;;;7.78;;
54263;SDS011;40178;53.042;6.406;2023-07-09T12:03:52;9.30;;;7.38;;
54263;SDS011;40178;53.042;6.406;2023-07-09T12:06:21;11.32;;;7.53;;
54263;SDS011;40178;53.042;6.406;2023-07-09T12:08:51;12.45;;;8.85;;
54263;SDS011;40178;53.042;6.406;2023-07-09T12:11:23;10.88;;;7.32;;
54263;SDS011;40178;53.042;6.406;2023-07-09T12:14:03;13.10;;;7.20;;
54263;SDS011;40178;53.042;6.406;2023-07-09T12:17:13;11.50;;;7.63;;
54263;SDS011;40178;53.042;6.406;2023-07-09T12:19:20;11.10;;;6.70;;
54263;SDS011;40178;53.042;6.406;2023-07-09T12:21:48;9.40;;;6.90;;
54263;SDS011;40178;53.042;6.406;2023-07-09T12:26:52;9.77;;;7.25;;
54263;SDS011;40178;53.042;6.406;2023-07-09T12:29:19;10.23;;;6.60;;
54263;SDS011;40178;53.042;6.406;2023-07-09T12:31:45;11.65;;;7.45;;
54263;SDS011;40178;53.042;6.406;2023-07-09T12:34:14;9.95;;;7.78;;
54263;SDS011;40178;53.042;6.406;2023-07-09T12:36:44;10.40;;;8.00;;
54263;SDS011;40178;53.042;6.406;2023-07-09T12:39:13;8.95;;;7.65;;
54263;SDS011;40178;53.042;6.406;2023-07-09T12:41:42;9.85;;;7.03;;
54263;SDS011;40178;53.042;6.406;2023-07-09T12:44:13;10.57;;;7.30;;
54263;SDS011;40178;53.042;6.406;2023-07-09T12:46:44;10.02;;;7.63;;
54263;SDS011;40178;53.042;6.406;2023-07-09T12:49:20;8.48;;;6.60;;
54263;SDS011;40178;53.042;6.406;2023-07-09T12:51:47;10.80;;;6.53;;
54263;SDS011;40178;53.042;6.406;2023-07-09T12:54:14;9.93;;;6.93;;
54263;SDS011;40178;53.042;6.406;2023-07-09T12:56:44;9.30;;;7.07;;
54263;SDS011;40178;53.042;6.406;2023-07-09T12:59:18;9.48;;;6.68;;
54263;SDS011;40178;53.042;6.406;2023-07-09T13:01:47;9.80;;;7.15;;
54263;SDS011;40178;53.042;6.406;2023-07-09T13:04:37;9.20;;;6.70;;
54263;SDS011;40178;53.042;6.406;2023-07-09T13:07:04;9.43;;;6.45;;
54263;SDS011;40178;53.042;6.406;2023-07-09T13:09:47;8.52;;;6.38;;
54263;SDS011;40178;53.042;6.406;2023-07-09T13:12:14;8.15;;;6.55;;
54263;SDS011;40178;53.042;6.406;2023-07-09T13:14:39;9.35;;;6.55;;
54263;SDS011;40178;53.042;6.406;2023-07-09T13:17:06;8.32;;;6.15;;
54263;SDS011;40178;53.042;6.406;2023-07-09T13:19:34;9.43;;;6.28;;
54263;SDS011;40178;53.042;6.406;2023-07-09T13:22:00;8.32;;;6.10;;
54263;SDS011;40178;53.042;6.406;2023-07-09T13:24:30;8.48;;;5.93;;
54263;SDS011;40178;53.042;6.406;2023-07-09T13:26:58;9.75;;;6.68;;
54263;SDS011;40178;53.042;6.406;2023-07-09T13:29:24;11.27;;;6.35;;
54263;SDS011;40178;53.042;6.406;2023-07-09T13:31:52;10.35;;;7.60;;
54263;SDS011;40178;53.042;6.406;2023-07-09T13:34:22;8.88;;;6.32;;
54263;SDS011;40178;53.042;6.406;2023-07-09T13:36:49;9.48;;;5.57;;
54263;SDS011;40178;53.042;6.406;2023-07-09T13:39:16;8.27;;;5.90;;
54263;SDS011;40178;53.042;6.406;2023-07-09T13:41:45;9.50;;;5.95;;
54263;SDS011;40178;53.042;6.406;2023-07-09T13:44:17;8.80;;;5.47;;
54263;SDS011;40178;53.042;6.406;2023-07-09T13:46:45;8.38;;;5.60;;
54263;SDS011;40178;53.042;6.406;2023-07-09T13:49:11;9.00;;;5.95;;
54263;SDS011;40178;53.042;6.406;2023-07-09T13:51:40;8.73;;;5.95;;
54263;SDS011;40178;53.042;6.406;2023-07-09T13:54:14;7.72;;;5.35;;
54263;SDS011;40178;53.042;6.406;2023-07-09T13:56:43;8.10;;;5.05;;
54263;SDS011;40178;53.042;6.406;2023-07-09T13:59:19;8.32;;;4.85;;
54263;SDS011;40178;53.042;6.406;2023-07-09T14:01:47;7.93;;;4.63;;
54263;SDS011;40178;53.042;6.406;2023-07-09T14:04:15;8.00;;;4.85;;
54263;SDS011;40178;53.042;6.406;2023-07-09T14:06:42;6.32;;;4.90;;
54263;SDS011;40178;53.042;6.406;2023-07-09T14:09:09;10.07;;;5.60;;
54263;SDS011;40178;53.042;6.406;2023-07-09T14:11:36;6.90;;;4.90;;
54263;SDS011;40178;53.042;6.406;2023-07-09T14:14:28;7.80;;;4.82;;
54263;SDS011;40178;53.042;6.406;2023-07-09T14:16:57;9.02;;;5.05;;
54263;SDS011;40178;53.042;6.406;2023-07-09T14:19:22;8.75;;;5.22;;
54263;SDS011;40178;53.042;6.406;2023-07-09T14:21:49;8.70;;;5.30;;
54263;SDS011;40178;53.042;6.406;2023-07-09T14:26:45;6.88;;;4.93;;
54263;SDS011;40178;53.042;6.406;2023-07-09T14:29:12;8.70;;;5.85;;
54263;SDS011;40178;53.042;6.406;2023-07-09T14:31:39;8.13;;;5.35;;
54263;SDS011;40178;53.042;6.406;2023-07-09T14:34:47;8.10;;;5.55;;
54263;SDS011;40178;53.042;6.406;2023-07-09T14:36:57;8.38;;;5.47;;
54263;SDS011;40178;53.042;6.406;2023-07-09T14:39:23;8.02;;;5.00;;
54263;SDS011;40178;53.042;6.406;2023-07-09T14:41:50;7.35;;;5.28;;
54263;SDS011;40178;53.042;6.406;2023-07-09T14:46:52;10.00;;;4.57;;
54263;SDS011;40178;53.042;6.406;2023-07-09T14:49:19;7.43;;;4.85;;
54263;SDS011;40178;53.042;6.406;2023-07-09T14:51:49;8.07;;;5.22;;
54263;SDS011;40178;53.042;6.406;2023-07-09T14:54:28;7.10;;;4.82;;
54263;SDS011;40178;53.042;6.406;2023-07-09T14:56:55;9.70;;;5.07;;
54263;SDS011;40178;53.042;6.406;2023-07-09T14:59:25;8.07;;;5.07;;
54263;SDS011;40178;53.042;6.406;2023-07-09T15:01:53;7.50;;;5.10;;
54263;SDS011;40178;53.042;6.406;2023-07-09T15:04:34;12.45;;;4.82;;
54263;SDS011;40178;53.042;6.406;2023-07-09T15:07:04;11.90;;;5.10;;
54263;SDS011;40178;53.042;6.406;2023-07-09T15:09:46;8.05;;;4.50;;
54263;SDS011;40178;53.042;6.406;2023-07-09T15:12:16;11.00;;;4.38;;
54263;SDS011;40178;53.042;6.406;2023-07-09T15:14:48;8.10;;;4.35;;
54263;SDS011;40178;53.042;6.406;2023-07-09T15:17:14;9.45;;;4.10;;
54263;SDS011;40178;53.042;6.406;2023-07-09T15:19:39;11.88;;;4.80;;
54263;SDS011;40178;53.042;6.406;2023-07-09T15:22:05;12.73;;;4.80;;
54263;SDS011;40178;53.042;6.406;2023-07-09T15:24:43;14.38;;;4.78;;
54263;SDS011;40178;53.042;6.406;2023-07-09T15:27:10;11.48;;;4.32;;
54263;SDS011;40178;53.042;6.406;2023-07-09T15:29:36;9.13;;;3.70;;
54263;SDS011;40178;53.042;6.406;2023-07-09T15:32:01;12.32;;;4.00;;